Time;durP1;ratioP1;P1;durP2;ratioP2;P2;SDS_P1;SDS_P2;PMS_P1;PMS_P2;Temp;Humidity;BMP_temperature;BMP_pressure;BME280_temperature;BME280_humidity;BME280_pressure;Samples;Min_cycle;Max_cycle;Signal;HPM_P1;HPM_P2
2022/06/12 00:02:13;;;;;;;;;;;;;;;;;;12646553;28;19923;-81
2022/06/12 00:08:14;;;;;;;;;;;;;;;;;;12631980;28;19908;-80
2022/06/12 00:14:16;;;;;;;;;;;;;;;;;;12640175;28;19920;-82
2022/06/12 00:20:18;;;;;;;;;;;;;;;;;;12641073;28;19923;-82
2022/06/12 00:26:19;;;;;;;;;;;;;;;;;;12667113;28;19945;-82
2022/06/12 00:32:21;;;;;;;;;;;;;;;;;;12715904;28;19939;-81
2022/06/12 00:38:22;;;;;;;;;;;;;;;;;;12660806;28;19924;-80
2022/06/12 00:44:24;;;;;;;;;;;;;;;;;;12654881;28;19912;-82
2022/06/12 00:50:25;;;;;;;;;;;;;;;;;;12635432;28;20379;-81
2022/06/12 00:56:27;;;;;;;;;;;;;;;;;;12654749;28;19915;-82
2022/06/12 01:02:28;;;;;;;;;;;;;;;;;;12635607;28;19923;-81
2022/06/12 01:08:30;;;;;;;;;;;;;;;;;;12653242;28;19915;-81
2022/06/12 01:14:31;;;;;;;;;;;;;;;;;;12651831;28;19927;-82
2022/06/12 01:20:33;;;;;;;;;;;;;;;;;;12650790;28;19916;-82
2022/06/12 01:26:34;;;;;;;;;;;;;;;;;;12655601;28;19908;-82
2022/06/12 01:32:36;;;;;;;;;;;;;;;;;;12665993;28;19908;-83
2022/06/12 01:38:37;;;;;;;;;;;;;;;;;;12652295;28;19916;-83
2022/06/12 01:44:39;;;;;;;;;;;;;;;;;;12633728;28;19916;-82
2022/06/12 01:50:41;;;;;;;;;;;;;;;;;;12650368;28;19908;-83
2022/06/12 01:56:42;;;;;;;;;;;;;;;;;;12633450;28;19908;-83
2022/06/12 02:02:44;;;;;;;;;;;;;;;;;;12650251;28;20292;-83
2022/06/12 02:08:46;;;;;;;;;;;;;;;;;;12633155;28;19908;-83
2022/06/12 02:14:47;;;;;;;;;;;;;;;;;;12653305;28;19907;-83
2022/06/12 02:20:49;;;;;;;;;;;;;;;;;;12668807;28;20408;-82
2022/06/12 02:26:57;;;;;;;;;;;;;;;;;;12649491;28;19908;-83
2022/06/12 02:32:59;;;;;;;;;;;;;;;;;;12649268;28;19912;-82
2022/06/12 02:39:01;;;;;;;;;;;;;;;;;;12648189;28;19930;-82
2022/06/12 02:45:02;;;;;;;;;;;;;;;;;;12649978;28;20245;-82
2022/06/12 02:51:04;;;;;;;;;;;;;;;;;;12630531;28;19915;-83
2022/06/12 02:57:06;;;;;;;;;;;;;;;;;;12629926;28;19908;-81
2022/06/12 03:03:07;;;;;;;;;;;;;;;;;;12647059;28;19916;-82
2022/06/12 03:09:08;;;;;;;;;;;;;;;;;;12629895;28;19908;-82
2022/06/12 03:15:11;;;;;;;;;;;;;;;;;;12647891;28;19932;-83
2022/06/12 03:21:13;;;;;;;;;;;;;;;;;;12630150;28;19923;-84
2022/06/12 03:27:14;;;;;;;;;;;;;;;;;;12645988;28;19908;-84
2022/06/12 03:33:16;;;;;;;;;;;;;;;;;;12629075;28;19908;-85
2022/06/12 03:39:17;;;;;;;;;;;;;;;;;;12647686;28;19958;-84
2022/06/12 03:45:19;;;;;;;;;;;;;;;;;;12647909;28;19912;-83
2022/06/12 03:51:20;;;;;;;;;;;;;;;;;;12628490;28;19919;-83
2022/06/12 04:03:42;;;;;;;;;;;;;;;;;;12629562;28;19916;-83
2022/06/12 04:09:43;;;;;;;;;;;;;;;;;;12648032;28;19915;-83
2022/06/12 04:15:45;;;;;;;;;;;;;;;;;;12635260;28;19927;-84
2022/06/12 04:21:47;;;;;;;;;;;;;;;;;;12700018;28;19991;-78
2022/06/12 04:27:48;;;;;;;;;;;;;;;;;;12654552;28;19915;-81
2022/06/12 04:33:50;;;;;;;;;;;;;;;;;;12638435;28;19919;-81
2022/06/12 04:39:51;;;;;;;;;;;;;;;;;;12630192;28;19916;-88
2022/06/12 04:45:52;;;;;;;;;;;;;;;;;;12628928;28;20280;-84
2022/06/12 04:51:54;;;;;;;;;;;;;;;;;;12668542;28;19922;-87
2022/06/12 04:57:55;;;;;;;;;;;;;;;;;;12636304;28;20296;-87
2022/06/12 05:03:57;;;;;;;;;;;;;;;;;;12636155;28;20112;-88
2022/06/12 05:09:59;;;;;;;;;;;;;;;;;;12637288;28;19908;-88
2022/06/12 05:16:00;;;;;;;;;;;;;;;;;;12636869;28;19920;-89
2022/06/12 05:22:02;;;;;;;;;;;;;;;;;;12636864;28;19916;-89
2022/06/12 05:28:04;;;;;;;;;;;;;;;;;;12637529;28;19931;-90
2022/06/12 05:34:05;;;;;;;;;;;;;;;;;;12640382;28;19986;-87
2022/06/12 05:40:06;;;;;;;;;;;;;;;;;;12655507;28;19915;-90
2022/06/12 05:46:11;;;;;;;;;;;;;;;;;;12659575;28;19912;-94
2022/06/12 05:52:13;;;;;;;;;;;;;;;;;;12656601;28;19922;-91
2022/06/12 05:58:14;;;;;;;;;;;;;;;;;;12653628;28;19915;-90
2022/06/12 06:04:16;;;;;;;;;;;;;;;;;;12649933;28;19912;-86
2022/06/12 06:10:17;;;;;;;;;;;;;;;;;;12632996;28;19908;-85
2022/06/12 06:16:19;;;;;;;;;;;;;;;;;;12651656;28;19916;-92
2022/06/12 06:22:20;;;;;;;;;;;;;;;;;;12642857;28;20300;-89
2022/06/12 06:28:22;;;;;;;;;;;;;;;;;;12652856;28;19915;-92
2022/06/12 06:34:23;;;;;;;;;;;;;;;;;;12635717;28;19915;-93
2022/06/12 06:40:25;;;;;;;;;;;;;;;;;;12636033;28;19923;-92
2022/06/12 06:46:26;;;;;;;;;;;;;;;;;;12633802;28;19931;-90
2022/06/12 06:52:28;;;;;;;;;;;;;;;;;;12651615;28;19908;-88
2022/06/12 06:58:31;;;;;;;;;;;;;;;;;;12649648;28;20032;-91
2022/06/12 07:04:33;;;;;;;;;;;;;;;;;;12647379;28;19915;-90
2022/06/12 07:10:35;;;;;;;;;;;;;;;;;;12629563;28;19915;-83
2022/06/12 07:16:36;;;;;;;;;;;;;;;;;;12646867;28;19920;-87
2022/06/12 07:22:38;;;;;;;;;;;;;;;;;;12628650;28;19916;-83
2022/06/12 07:28:39;;;;;;;;;;;;;;;;;;12630224;28;20356;-87
2022/06/12 07:34:41;;;;;;;;;;;;;;;;;;12629204;28;19912;-91
2022/06/12 07:40:42;;;;;;;;;;;;;;;;;;12630587;28;19920;-83
2022/06/12 07:46:44;;;;;;;;;;;;;;;;;;12649204;28;19915;-90
2022/06/12 07:52:45;;;;;;;;;;;;;;;;;;12648473;28;19908;-82
2022/06/12 07:58:47;;;;;;;;;;;;;;;;;;12645072;28;20380;-83
2022/06/12 08:04:48;;;;;;;;;;;;;;;;;;12612693;28;19908;-87
2022/06/12 08:10:50;;;;;;;;;;;;;;;;;;12643679;28;19916;-79
2022/06/12 08:16:51;;;;;;;;;;;;;;;;;;12644734;28;19916;-79
2022/06/12 08:22:55;;;;;;;;;;;;;;;;;;12646329;28;19916;-83
2022/06/12 08:28:57;;;;;;;;;;;;;;;;;;12648628;28;19908;-81
2022/06/12 08:34:59;;;;;;;;;;;;;;;;;;12656207;28;19931;-84
2022/06/12 08:41:01;;;;;;;;;;;;;;;;;;12639344;28;19927;-84
2022/06/12 08:47:03;;;;;;;;;;;;;;;;;;12641838;28;19915;-85
2022/06/12 08:53:04;;;;;;;;;;;;;;;;;;12658718;28;20379;-87
2022/06/12 08:59:06;;;;;;;;;;;;;;;;;;12637635;28;19916;-82
2022/06/12 09:05:07;;;;;;;;;;;;;;;;;;12636557;28;19915;-87
2022/06/12 09:11:09;;;;;;;;;;;;;;;;;;12655097;28;20265;-84
2022/06/12 09:17:10;;;;;;;;;;;;;;;;;;12652938;28;19919;-85
2022/06/12 09:23:12;;;;;;;;;;;;;;;;;;12652737;28;19920;-86
2022/06/12 09:29:13;;;;;;;;;;;;;;;;;;12634768;28;19915;-85
2022/06/12 09:35:15;;;;;;;;;;;;;;;;;;12652725;28;20368;-83
2022/06/12 09:41:17;;;;;;;;;;;;;;;;;;12652490;28;19920;-82
2022/06/12 09:47:19;;;;;;;;;;;;;;;;;;12640323;28;20365;-87
2022/06/12 09:53:20;;;;;;;;;;;;;;;;;;12687022;28;20007;-86
2022/06/12 09:59:22;;;;;;;;;;;;;;;;;;12658351;28;20319;-89
2022/06/12 10:05:24;;;;;;;;;;;;;;;;;;12633164;28;19908;-82
2022/06/12 10:11:25;;;;;;;;;;;;;;;;;;12649430;28;20382;-82
2022/06/12 10:17:26;;;;;;;;;;;;;;;;;;12649531;28;20279;-84
2022/06/12 10:23:28;;;;;;;;;;;;;;;;;;12631621;28;19952;-83
2022/06/12 10:29:29;;;;;;;;;;;;;;;;;;12650235;28;19908;-85
2022/06/12 10:35:32;;;;;;;;;;;;;;;;;;12648502;28;19915;-86
2022/06/12 10:41:33;;;;;;;;;;;;;;;;;;12632292;28;20015;-86
2022/06/12 10:47:34;;;;;;;;;;;;;;;;;;12648442;28;20272;-85
2022/06/12 10:53:36;;;;;;;;;;;;;;;;;;12631859;28;19919;-87
2022/06/12 10:59:37;;;;;;;;;;;;;;;;;;12650827;28;19923;-88
2022/06/12 11:05:39;;;;;;;;;;;;;;;;;;12646920;28;19908;-82
2022/06/12 11:11:40;;;;;;;;;;;;;;;;;;12647829;28;19923;-84
2022/06/12 11:17:42;;;;;;;;;;;;;;;;;;12629870;28;19916;-87
2022/06/12 11:23:43;;;;;;;;;;;;;;;;;;12630418;28;20391;-90
2022/06/12 11:29:45;;;;;;;;;;;;;;;;;;12671201;28;19912;-85
2022/06/12 11:35:46;;;;;;;;;;;;;;;;;;12631048;28;19907;-86
2022/06/12 11:41:48;;;;;;;;;;;;;;;;;;12646675;28;19920;-85
2022/06/12 11:47:50;;;;;;;;;;;;;;;;;;12630798;28;20376;-90
2022/06/12 11:53:51;;;;;;;;;;;;;;;;;;12633955;28;20288;-84
2022/06/12 11:59:53;;;;;;;;;;;;;;;;;;12647187;28;19916;-88
2022/06/12 12:05:55;;;;;;;;;;;;;;;;;;12659537;28;19931;-90
2022/06/12 12:11:56;;;;;;;;;;;;;;;;;;12648534;28;19912;-78
2022/06/12 12:17:58;;;;;;;;;;;;;;;;;;12661057;28;19907;-83
2022/06/12 12:23:59;;;;;;;;;;;;;;;;;;12663046;28;20384;-86
2022/06/12 12:30:01;;;;;;;;;;;;;;;;;;12654422;28;19915;-83
2022/06/12 12:42:27;;;;;;;;;;;;;;;;;;12677728;28;19920;-82
2022/06/12 12:48:28;;;;;;;;;;;;;;;;;;12675580;28;19908;-82
2022/06/12 12:54:30;;;;;;;;;;;;;;;;;;12677837;28;20347;-80
2022/06/12 13:00:33;;;;;;;;;;;;;;;;;;12671637;28;19927;-81
2022/06/12 13:06:34;;;;;;;;;;;;;;;;;;12677489;28;19915;-82
2022/06/12 13:12:36;;;;;;;;;;;;;;;;;;12678844;28;19927;-85
2022/06/12 13:18:37;;;;;;;;;;;;;;;;;;12688876;28;19912;-83
2022/06/12 13:24:39;;;;;;;;;;;;;;;;;;12678235;28;19916;-82
2022/06/12 13:30:40;;;;;;;;;;;;;;;;;;12664620;28;20292;-79
2022/06/12 13:37:08;;;;;;;;;;;;;;;;;;12662152;28;20276;-83
2022/06/12 13:43:09;;;;;;;;;;;;;;;;;;12647269;28;19926;-83
2022/06/12 13:49:11;;;;;;;;;;;;;;;;;;12666438;28;19918;-85
2022/06/12 13:55:12;;;;;;;;;;;;;;;;;;12668235;28;19915;-81
2022/06/12 14:01:14;;;;;;;;;;;;;;;;;;12666514;28;19916;-84
2022/06/12 14:07:15;;;;;;;;;;;;;;;;;;12642563;28;19915;-84
2022/06/12 14:13:17;;;;;;;;;;;;;;;;;;12639347;28;19943;-81
2022/06/12 14:19:18;;;;;;;;;;;;;;;;;;12635232;28;19916;-82
2022/06/12 14:25:20;;;;;;;;;;;;;;;;;;12653110;28;19994;-81
2022/06/12 14:31:22;;;;;;;;;;;;;;;;;;12697020;28;19987;-77
2022/06/12 14:37:23;;;;;;;;;;;;;;;;;;12653336;28;19915;-78
2022/06/12 14:43:26;;;;;;;;;;;;;;;;;;12654742;28;19920;-81
2022/06/12 14:49:27;;;;;;;;;;;;;;;;;;12638068;28;19908;-81
2022/06/12 14:55:29;;;;;;;;;;;;;;;;;;12654147;28;19919;-82
2022/06/12 15:01:30;;;;;;;;;;;;;;;;;;12640337;28;19920;-82
2022/06/12 15:07:32;;;;;;;;;;;;;;;;;;12640605;28;19915;-79
2022/06/12 15:13:33;;;;;;;;;;;;;;;;;;12633861;28;19927;-79
2022/06/12 15:19:35;;;;;;;;;;;;;;;;;;12629328;28;19923;-80
2022/06/12 15:31:57;;;;;;;;;;;;;;;;;;12648585;28;19915;-83
2022/06/12 15:37:58;;;;;;;;;;;;;;;;;;12629211;28;19915;-82
2022/06/12 15:44:00;;;;;;;;;;;;;;;;;;12646737;28;20284;-83
2022/06/12 15:50:02;;;;;;;;;;;;;;;;;;12646644;28;19916;-81
2022/06/12 15:56:04;;;;;;;;;;;;;;;;;;12628579;28;19908;-82
2022/06/12 16:02:05;;;;;;;;;;;;;;;;;;12665302;28;19916;-81
2022/06/12 16:08:07;;;;;;;;;;;;;;;;;;12644751;28;19908;-80
2022/06/12 16:14:08;;;;;;;;;;;;;;;;;;12628574;28;20242;-81
2022/06/12 16:20:10;;;;;;;;;;;;;;;;;;12628471;28;19916;-82
2022/06/12 16:26:13;;;;;;;;;;;;;;;;;;12627495;28;19915;-81
2022/06/12 16:32:14;;;;;;;;;;;;;;;;;;12627884;28;19915;-83
2022/06/12 16:38:16;;;;;;;;;;;;;;;;;;12645474;28;19915;-84
2022/06/12 16:44:18;;;;;;;;;;;;;;;;;;12645170;28;19920;-85
2022/06/12 16:50:19;;;;;;;;;;;;;;;;;;12647421;28;19908;-84
2022/06/12 16:56:21;;;;;;;;;;;;;;;;;;12655439;28;19919;-86
2022/06/12 17:02:22;;;;;;;;;;;;;;;;;;12638837;28;19916;-86
2022/06/12 17:08:24;;;;;;;;;;;;;;;;;;12639610;28;19908;-85
2022/06/12 17:14:25;;;;;;;;;;;;;;;;;;12639482;28;19927;-85
2022/06/12 17:20:45;;;;;;;;;;;;;;;;;;12655136;28;19923;-87
2022/06/12 17:26:47;;;;;;;;;;;;;;;;;;12641841;28;19908;-83
2022/06/12 17:32:48;;;;;;;;;;;;;;;;;;12663483;28;20357;-83
2022/06/12 17:38:50;;;;;;;;;;;;;;;;;;12664377;28;20280;-85
2022/06/12 17:44:51;;;;;;;;;;;;;;;;;;12649774;28;19920;-85
2022/06/12 17:50:53;;;;;;;;;;;;;;;;;;12656571;28;19908;-86
2022/06/12 17:56:55;;;;;;;;;;;;;;;;;;12694488;28;19979;-87
2022/06/12 18:02:56;;;;;;;;;;;;;;;;;;12687604;28;19916;-85
2022/06/12 18:09:01;;;;;;;;;;;;;;;;;;12665757;28;19926;-86
2022/06/12 18:21:23;;;;;;;;;;;;;;;;;;12633053;28;19916;-86
2022/06/12 18:27:25;;;;;;;;;;;;;;;;;;12632780;28;20341;-85
2022/06/12 18:33:26;;;;;;;;;;;;;;;;;;12632802;28;20078;-85
2022/06/12 18:39:28;;;;;;;;;;;;;;;;;;12649409;28;19919;-84
2022/06/12 18:45:29;;;;;;;;;;;;;;;;;;12647176;28;19912;-83
2022/06/12 18:51:31;;;;;;;;;;;;;;;;;;12644758;28;19911;-83
2022/06/12 18:57:32;;;;;;;;;;;;;;;;;;12649971;28;19908;-84
2022/06/12 19:03:34;;;;;;;;;;;;;;;;;;12632695;28;19939;-83
2022/06/12 19:09:36;;;;;;;;;;;;;;;;;;12650447;28;19916;-84
2022/06/12 19:15:37;;;;;;;;;;;;;;;;;;12648856;28;19927;-86
2022/06/12 19:21:39;;;;;;;;;;;;;;;;;;12647982;28;19916;-84
2022/06/12 19:27:42;;;;;;;;;;;;;;;;;;12648573;28;19912;-84
2022/06/12 19:33:43;;;;;;;;;;;;;;;;;;12647244;28;19907;-84
2022/06/12 19:39:44;;;;;;;;;;;;;;;;;;12649860;28;19954;-84
2022/06/12 19:45:48;;;;;;;;;;;;;;;;;;12655486;28;19920;-84
2022/06/12 19:51:50;;;;;;;;;;;;;;;;;;12636940;28;19923;-85
2022/06/12 19:57:52;;;;;;;;;;;;;;;;;;12643742;28;19915;-86
2022/06/12 20:03:53;;;;;;;;;;;;;;;;;;12644390;28;19916;-84
2022/06/12 20:09:55;;;;;;;;;;;;;;;;;;12666071;28;20043;-87
2022/06/12 20:15:56;;;;;;;;;;;;;;;;;;12662982;28;19920;-87
2022/06/12 20:21:58;;;;;;;;;;;;;;;;;;12663968;28;19916;-86
2022/06/12 20:27:59;;;;;;;;;;;;;;;;;;12659660;28;19908;-83
2022/06/12 20:34:01;;;;;;;;;;;;;;;;;;12641422;28;19912;-85
2022/06/12 20:40:02;;;;;;;;;;;;;;;;;;12659429;28;19916;-81
2022/06/12 20:46:04;;;;;;;;;;;;;;;;;;12657625;28;20360;-85
2022/06/12 20:52:06;;;;;;;;;;;;;;;;;;12650802;28;19908;-83
2022/06/12 20:58:08;;;;;;;;;;;;;;;;;;12663263;28;19908;-82
2022/06/12 21:04:09;;;;;;;;;;;;;;;;;;12660957;28;19916;-84
2022/06/12 21:10:10;;;;;;;;;;;;;;;;;;12641081;28;19982;-84
2022/06/12 21:16:12;;;;;;;;;;;;;;;;;;12663395;28;19920;-83
2022/06/12 21:22:13;;;;;;;;;;;;;;;;;;12687725;28;19963;-83
2022/06/12 21:28:16;;;;;;;;;;;;;;;;;;12677897;28;19896;-84
2022/06/12 21:34:17;;;;;;;;;;;;;;;;;;12674286;28;19919;-83
2022/06/12 21:40:19;;;;;;;;;;;;;;;;;;12652204;28;19935;-84
2022/06/12 21:46:21;;;;;;;;;;;;;;;;;;12649007;28;19908;-80
2022/06/12 21:58:42;;;;;;;;;;;;;;;;;;12673240;28;19915;-82
2022/06/12 22:04:44;;;;;;;;;;;;;;;;;;12666908;28;19916;-82
2022/06/12 22:10:48;;;;;;;;;;;;;;;;;;12667252;28;20349;-85
2022/06/12 22:16:49;;;;;;;;;;;;;;;;;;12573742;28;19916;-83
2022/06/12 22:22:51;;;;;;;;;;;;;;;;;;12550525;28;20304;-84
2022/06/12 22:28:52;;;;;;;;;;;;;;;;;;12532610;28;19908;-86
2022/06/12 22:34:54;;;;;;;;;;;;;;;;;;12534185;28;20269;-85
2022/06/12 22:40:55;;;;;;;;;;;;;;;;;;12566117;28;19927;-76
2022/06/12 22:46:57;;;;;;;;;;;;;;;;;;12532884;28;20284;-83
2022/06/12 22:52:58;;;;;;;;;;;;;;;;;;12540495;28;19909;-79
2022/06/12 22:59:00;;;;;;;;;;;;;;;;;;12550633;28;19909;-80
2022/06/12 23:05:01;;;;;;;;;;;;;;;;;;12558901;28;19917;-85
2022/06/12 23:11:04;;;;;;;;;;;;;;;;;;12534733;28;19912;-79
2022/06/12 23:17:05;;;;;;;;;;;;;;;;;;12638226;28;19923;-79
2022/06/12 23:29:28;;;;;;;;;;;;;;;;;;12632635;28;19927;-80
2022/06/12 23:35:30;;;;;;;;;;;;;;;;;;12651640;28;19907;-80
2022/06/12 23:41:32;;;;;;;;;;;;;;;;;;12649726;28;19939;-78
2022/06/12 23:47:33;;;;;;;;;;;;;;;;;;12648823;28;20291;-79
2022/06/12 23:53:35;;;;;;;;;;;;;;;;;;12631828;28;19907;-86
2022/06/12 23:59:37;;;;;;;;;;;;;;;;;;12634431;28;19908;-86
